Beverly Hills, Texas
Current Conditions -  °F | °C
As of 9:51 AM on Monday 26 Jan 2015 (Local Time) from KACT Reporting Station
Clear Clear  
Wind Chill: 50°   Ceiling: Unl
Heat Index: 50°   Visibility: 10mi
Dew Point: 36°   Wind: 7mph
Humidity: 59%   Direction: 210°SSW
Pressure: 30.26"   Gusts: NA
Location:  31.5144°N, 97.156°W
Report Text: KACT 261551Z 21006KT 10SM CLR 10/02 A3026 RMK AO2 SLP246 T01000022
Loading
Personal Weather Stations






























Interactive Weather Map New forecast layout! Learn more

10-Day Weather Forecast

Advertisements
Track Severe Weather on mobile